createdAt,value
2023-12-21T00:02:01.411Z,4.50
2023-12-21T00:04:08.711Z,4.53
2023-12-21T00:06:13.922Z,3.60
2023-12-21T00:08:22.899Z,3.83
2023-12-21T00:10:25.515Z,3.63
2023-12-21T00:12:30.732Z,3.45
2023-12-21T00:14:36.485Z,3.47
2023-12-21T00:16:39.058Z,2.90
2023-12-21T00:18:45.240Z,2.92
2023-12-21T00:20:50.464Z,3.03
2023-12-21T00:22:55.570Z,3.17
2023-12-21T00:25:04.420Z,2.70
2023-12-21T00:27:10.079Z,2.53
2023-12-21T00:29:15.790Z,3.30
2023-12-21T00:31:24.010Z,2.80
2023-12-21T00:33:29.259Z,2.65
2023-12-21T00:35:34.472Z,2.17
2023-12-21T00:37:38.726Z,3.03
2023-12-21T00:39:44.427Z,2.30
2023-12-21T00:41:52.591Z,2.03
2023-12-21T00:43:57.722Z,2.08
2023-12-21T00:46:00.370Z,2.22
2023-12-21T00:48:05.888Z,2.30
2023-12-21T00:50:09.731Z,1.60
2023-12-21T00:52:15.609Z,2.20
2023-12-21T00:54:21.734Z,2.05
2023-12-21T00:56:26.833Z,1.98
2023-12-21T00:58:34.575Z,1.98
2023-12-21T01:00:40.277Z,1.80
2023-12-21T01:02:49.904Z,1.60
2023-12-21T01:04:52.639Z,1.75
2023-12-21T01:06:57.731Z,2.28
2023-12-21T01:09:03.661Z,1.98
2023-12-21T01:11:09.132Z,2.08
2023-12-21T01:13:14.598Z,2.03
2023-12-21T01:15:22.315Z,2.30
2023-12-21T01:17:27.496Z,2.20
2023-12-21T01:19:32.769Z,2.38
2023-12-21T01:21:39.130Z,2.08
2023-12-21T01:23:45.037Z,2.60
2023-12-21T01:25:50.313Z,2.63
2023-12-21T01:27:56.510Z,2.67
2023-12-21T01:30:01.721Z,3.10
2023-12-21T01:32:10.937Z,2.90
2023-12-21T01:34:17.308Z,2.95
2023-12-21T01:36:23.250Z,2.67
2023-12-21T01:38:29.560Z,2.70
2023-12-21T01:40:32.153Z,2.40
2023-12-21T01:42:39.918Z,3.05
2023-12-21T01:44:45.363Z,2.35
2023-12-21T01:46:51.549Z,2.65
2023-12-21T01:48:57.600Z,2.40
2023-12-21T01:51:05.606Z,2.53
2023-12-21T01:53:13.609Z,2.40
2023-12-21T01:55:17.436Z,1.77
2023-12-21T01:57:23.016Z,1.90
2023-12-21T01:59:29.276Z,1.48
2023-12-21T02:01:35.453Z,1.80
2023-12-21T02:03:43.433Z,1.77
2023-12-21T02:05:48.643Z,1.90
2023-12-21T02:07:54.323Z,2.05
2023-12-21T02:09:59.505Z,1.90
2023-12-21T02:12:02.647Z,1.50
2023-12-21T02:14:07.986Z,1.70
2023-12-21T02:16:19.115Z,1.52
2023-12-21T02:18:25.166Z,1.30
2023-12-21T02:20:30.965Z,1.40
2023-12-21T02:22:41.230Z,1.20
2023-12-21T02:24:49.444Z,1.25
2023-12-21T02:26:54.811Z,1.10
2023-12-21T02:29:00.018Z,1.20
2023-12-21T02:31:05.270Z,0.90
2023-12-21T02:33:08.494Z,1.08
2023-12-21T02:35:18.841Z,1.05
2023-12-21T02:37:22.206Z,0.95
2023-12-21T02:39:27.597Z,1.10
2023-12-21T02:41:35.423Z,1.25
2023-12-21T02:43:41.018Z,1.10
2023-12-21T02:45:46.176Z,1.40
2023-12-21T02:47:49.113Z,1.10
2023-12-21T02:49:54.368Z,0.95
2023-12-21T02:52:00.773Z,1.00
2023-12-21T02:54:07.781Z,0.98
2023-12-21T02:56:13.529Z,1.08
2023-12-21T02:58:21.979Z,0.80
2023-12-21T03:00:27.238Z,0.65
2023-12-21T03:02:31.466Z,1.02
2023-12-21T03:04:36.715Z,0.98
2023-12-21T03:06:41.964Z,0.75
2023-12-21T03:08:48.283Z,0.73
2023-12-21T03:10:53.501Z,0.77
2023-12-21T03:12:59.629Z,0.52
2023-12-21T03:15:08.580Z,0.68
2023-12-21T03:17:14.619Z,0.68
2023-12-21T03:19:19.896Z,0.70
2023-12-21T03:21:25.573Z,0.80
2023-12-21T03:23:29.212Z,0.98
2023-12-21T03:25:34.724Z,0.90
2023-12-21T03:27:40.475Z,1.00
2023-12-21T03:29:45.758Z,0.93
2023-12-21T03:31:55.531Z,1.00
2023-12-21T03:34:01.440Z,1.20
2023-12-21T03:36:08.126Z,1.38
2023-12-21T03:38:13.284Z,1.80
2023-12-21T03:40:19.481Z,2.00
2023-12-21T03:42:28.898Z,2.05
2023-12-21T03:44:34.047Z,1.55
2023-12-21T03:46:36.657Z,1.75
2023-12-21T03:48:44.430Z,1.83
2023-12-21T03:50:49.644Z,1.75
2023-12-21T03:52:55.219Z,2.03
2023-12-21T03:54:58.334Z,2.13
2023-12-21T03:57:03.792Z,1.95
2023-12-21T03:59:09.176Z,2.50
2023-12-21T04:01:15.273Z,2.00
2023-12-21T04:03:21.046Z,2.03
2023-12-21T04:05:29.546Z,1.85
2023-12-21T04:07:34.776Z,1.98
2023-12-21T04:09:40.196Z,1.73
2023-12-21T04:11:45.720Z,2.33
2023-12-21T04:13:51.454Z,1.70
2023-12-21T04:15:56.642Z,1.83
2023-12-21T04:18:01.891Z,1.50
2023-12-21T04:20:08.633Z,1.60
2023-12-21T04:22:14.033Z,1.27
2023-12-21T04:24:20.005Z,1.25
2023-12-21T04:26:26.295Z,1.33
2023-12-21T04:28:32.117Z,1.30
2023-12-21T04:30:37.350Z,1.05
2023-12-21T04:32:42.555Z,1.00
2023-12-21T04:34:47.864Z,0.90
2023-12-21T04:36:53.457Z,1.20
2023-12-21T04:39:01.168Z,1.17
2023-12-21T04:41:04.527Z,1.10
2023-12-21T04:45:13.711Z,1.17
2023-12-21T04:47:23.418Z,1.50
2023-12-21T04:49:29.561Z,1.33
2023-12-21T04:51:36.082Z,1.13
2023-12-21T04:53:41.241Z,1.10
2023-12-21T04:55:49.872Z,0.93
2023-12-21T04:57:55.059Z,1.20
2023-12-21T05:00:00.282Z,1.20
2023-12-21T05:02:06.213Z,1.48
2023-12-21T05:04:11.927Z,1.20
2023-12-21T05:06:17.737Z,1.10
2023-12-21T05:08:20.785Z,1.45
2023-12-21T05:10:25.984Z,1.20
2023-12-21T05:12:36.406Z,1.27
2023-12-21T05:14:41.652Z,1.00
2023-12-21T05:16:47.367Z,1.02
2023-12-21T05:18:52.633Z,1.05
2023-12-21T05:20:57.768Z,1.25
2023-12-21T05:23:03.262Z,1.23
2023-12-21T05:25:09.608Z,1.02
2023-12-21T05:27:14.795Z,1.08
2023-12-21T05:29:19.939Z,1.20
2023-12-21T05:31:31.492Z,1.08
2023-12-21T05:33:37.120Z,0.85
2023-12-21T05:35:42.299Z,1.02
2023-12-21T05:37:47.545Z,1.30
2023-12-21T05:39:52.742Z,1.40
2023-12-21T05:41:59.178Z,1.10
2023-12-21T05:44:01.760Z,1.20
2023-12-21T05:46:10.007Z,1.38
2023-12-21T05:48:13.717Z,1.30
2023-12-21T05:50:19.169Z,1.42
2023-12-21T05:52:25.105Z,1.23
2023-12-21T05:54:31.893Z,1.27
2023-12-21T05:56:37.569Z,1.25
2023-12-21T05:58:42.896Z,1.35
2023-12-21T06:00:48.587Z,1.30
2023-12-21T06:02:56.407Z,1.20
2023-12-21T06:05:02.487Z,1.60
2023-12-21T06:07:06.162Z,1.50
2023-12-21T06:09:11.468Z,1.48
2023-12-21T06:11:19.810Z,1.30
2023-12-21T06:13:22.509Z,1.48
2023-12-21T06:15:27.668Z,1.30
2023-12-21T06:17:33.349Z,1.30
2023-12-21T06:19:41.271Z,1.17
2023-12-21T06:21:47.527Z,1.02
2023-12-21T06:23:52.668Z,1.40
2023-12-21T06:25:58.441Z,1.23
2023-12-21T06:28:04.238Z,1.38
2023-12-21T06:30:11.688Z,1.60
2023-12-21T06:32:17.523Z,1.30
2023-12-21T06:34:21.029Z,1.85
2023-12-21T06:36:29.742Z,1.30
2023-12-21T06:38:34.893Z,1.23
2023-12-21T06:40:41.063Z,1.17
2023-12-21T06:42:50.508Z,1.17
2023-12-21T06:44:56.218Z,1.10
2023-12-21T06:46:58.820Z,0.93
2023-12-21T06:49:04.164Z,0.90
2023-12-21T06:51:09.476Z,1.05
2023-12-21T06:53:18.609Z,0.80
2023-12-21T06:55:24.339Z,0.70
2023-12-21T06:57:29.945Z,0.90
2023-12-21T06:59:35.121Z,0.90
2023-12-21T07:01:42.659Z,0.70
2023-12-21T07:03:48.591Z,0.70
2023-12-21T07:05:54.241Z,0.52
2023-12-21T07:07:59.440Z,0.68
2023-12-21T07:10:09.216Z,0.60
2023-12-21T07:12:14.432Z,0.60
2023-12-21T07:14:19.877Z,0.45
2023-12-21T07:16:25.121Z,0.40
2023-12-21T07:18:30.381Z,0.50
2023-12-21T07:20:33.406Z,0.50
2023-12-21T07:22:42.046Z,0.73
2023-12-21T07:24:47.572Z,0.60
2023-12-21T07:26:55.358Z,0.50
2023-12-21T07:29:00.641Z,0.65
2023-12-21T07:31:04.046Z,0.50
2023-12-21T07:33:09.309Z,0.60
2023-12-21T07:35:16.777Z,0.57
2023-12-21T07:37:22.116Z,0.43
2023-12-21T07:39:28.115Z,0.60
2023-12-21T07:41:37.483Z,0.65
2023-12-21T07:43:46.432Z,0.88
2023-12-21T07:45:52.103Z,0.90
2023-12-21T07:47:57.413Z,0.70
2023-12-21T07:50:03.508Z,0.90
2023-12-21T07:52:09.633Z,0.93
2023-12-21T07:54:15.742Z,1.00
2023-12-21T07:56:21.037Z,1.10
2023-12-21T07:58:26.773Z,0.80
2023-12-21T08:00:34.552Z,1.05
2023-12-21T08:02:46.680Z,0.90
2023-12-21T08:04:52.309Z,0.70
2023-12-21T08:06:57.547Z,0.90
2023-12-21T08:09:03.141Z,0.93
2023-12-21T08:11:08.518Z,0.80
2023-12-21T08:13:18.618Z,0.70
2023-12-21T08:15:24.180Z,0.90
2023-12-21T08:17:31.995Z,0.60
2023-12-21T08:19:37.565Z,0.70
2023-12-21T08:21:42.780Z,0.60
2023-12-21T08:23:48.063Z,0.63
2023-12-21T08:25:53.345Z,0.85
2023-12-21T08:27:58.614Z,0.52
2023-12-21T08:30:04.186Z,0.60
2023-12-21T08:32:10.076Z,0.57
2023-12-21T08:34:17.920Z,0.50
2023-12-21T08:36:23.747Z,0.52
2023-12-21T08:38:29.381Z,0.52
2023-12-21T08:40:34.954Z,0.40
2023-12-21T08:42:42.196Z,0.60
2023-12-21T08:44:47.389Z,0.47
2023-12-21T08:46:54.600Z,0.50
2023-12-21T08:49:00.025Z,0.63
2023-12-21T08:51:07.869Z,0.38
2023-12-21T08:53:13.306Z,0.40
2023-12-21T08:55:20.348Z,0.50
2023-12-21T08:57:26.197Z,0.40
2023-12-21T08:59:31.600Z,0.40
2023-12-21T09:01:38.161Z,0.52
2023-12-21T09:03:44.220Z,0.55
2023-12-21T09:05:50.282Z,0.40
2023-12-21T09:07:58.067Z,0.40
2023-12-21T09:10:04.589Z,0.50
2023-12-21T09:12:10.524Z,0.52
2023-12-21T09:14:19.290Z,0.40
2023-12-21T09:16:24.527Z,0.65
2023-12-21T09:18:29.891Z,0.40
2023-12-21T09:20:35.070Z,0.35
2023-12-21T09:22:43.765Z,0.35
2023-12-21T09:24:51.704Z,0.40
2023-12-21T09:26:57.034Z,0.40
2023-12-21T09:29:05.484Z,0.40
2023-12-21T09:31:11.563Z,0.40
2023-12-21T09:33:19.783Z,0.40
2023-12-21T09:35:22.470Z,0.30
2023-12-21T09:37:29.212Z,0.35
2023-12-21T09:39:35.059Z,0.40
2023-12-21T09:41:53.850Z,0.30
2023-12-21T09:44:06.803Z,0.25
2023-12-21T09:46:13.074Z,0.52
2023-12-21T09:48:16.729Z,0.20
2023-12-21T09:50:23.609Z,0.30
2023-12-21T09:52:30.722Z,0.20
2023-12-21T09:54:37.225Z,0.25
2023-12-21T09:56:45.671Z,0.20
2023-12-21T09:58:52.531Z,0.30
2023-12-21T10:00:57.751Z,0.40
2023-12-21T10:03:03.362Z,0.20
2023-12-21T10:05:10.156Z,0.30
2023-12-21T10:07:16.240Z,0.40
2023-12-21T10:09:22.751Z,0.73
2023-12-21T10:11:30.572Z,0.47
2023-12-21T10:13:39.917Z,0.60
2023-12-21T10:15:47.478Z,0.40
2023-12-21T10:17:52.787Z,0.30
2023-12-21T10:19:58.550Z,0.40
2023-12-21T10:22:01.158Z,0.40
2023-12-21T10:24:08.741Z,0.43
2023-12-21T10:26:13.986Z,0.60
2023-12-21T10:28:19.633Z,0.50
2023-12-21T10:30:29.118Z,0.57
2023-12-21T10:32:34.558Z,0.50
2023-12-21T10:34:38.047Z,0.60
2023-12-21T10:36:44.132Z,0.50
2023-12-21T10:38:50.692Z,0.40
2023-12-21T10:40:56.129Z,0.50
2023-12-21T10:43:05.355Z,0.20
2023-12-21T10:45:16.935Z,0.30
2023-12-21T10:47:33.486Z,0.50
2023-12-21T10:49:41.001Z,0.30
2023-12-21T10:51:46.404Z,0.20
2023-12-21T10:53:52.668Z,0.38
2023-12-21T10:55:56.440Z,0.20
2023-12-21T10:58:02.905Z,0.20
2023-12-21T11:00:14.049Z,0.15
2023-12-21T11:02:22.655Z,0.30
2023-12-21T11:04:32.708Z,0.20
2023-12-21T11:06:39.270Z,0.10
2023-12-21T11:08:42.107Z,0.13
2023-12-21T11:10:49.214Z,0.22
2023-12-21T11:12:55.049Z,0.10
2023-12-21T11:15:02.196Z,0.10
2023-12-21T11:17:10.395Z,0.00
2023-12-21T11:19:31.419Z,0.10
2023-12-21T11:21:44.975Z,0.13
2023-12-21T11:23:50.141Z,0.10
2023-12-21T11:26:00.273Z,0.10
2023-12-21T11:28:07.934Z,0.20
2023-12-21T11:30:16.455Z,0.40
2023-12-21T11:32:27.790Z,0.70
2023-12-21T11:34:43.723Z,0.40
2023-12-21T11:36:58.804Z,0.25
2023-12-21T11:39:02.091Z,0.30
2023-12-21T11:41:09.349Z,0.10
2023-12-21T11:43:25.734Z,0.20
2023-12-21T11:45:31.311Z,0.32
2023-12-21T11:47:37.259Z,0.10
2023-12-21T11:49:42.563Z,0.20
2023-12-21T11:51:57.587Z,0.20
2023-12-21T11:54:12.509Z,0.08
2023-12-21T11:56:18.147Z,0.10
2023-12-21T11:58:26.818Z,0.10
2023-12-21T12:00:32.625Z,0.43
2023-12-21T12:02:41.106Z,0.10
2023-12-21T12:04:55.166Z,0.20
2023-12-21T12:07:04.123Z,0.10
2023-12-21T12:09:10.107Z,0.20
2023-12-21T12:11:15.784Z,0.20
2023-12-21T12:13:23.678Z,0.10
2023-12-21T12:15:28.950Z,0.10
2023-12-21T12:17:35.373Z,0.10
2023-12-21T12:19:41.817Z,0.10
2023-12-21T12:21:47.013Z,0.13
2023-12-21T12:23:56.566Z,0.10
2023-12-21T12:26:01.971Z,0.10
2023-12-21T12:28:08.104Z,0.20
2023-12-21T12:30:15.462Z,0.10
2023-12-21T12:32:22.820Z,0.10
2023-12-21T12:34:26.126Z,0.20
2023-12-21T12:36:31.415Z,0.10
2023-12-21T12:38:34.270Z,0.10
2023-12-21T12:40:45.912Z,0.20
2023-12-21T12:42:52.337Z,0.10
2023-12-21T12:44:58.681Z,0.30
2023-12-21T12:47:07.093Z,0.20
2023-12-21T12:51:22.370Z,0.20
2023-12-21T12:53:31.503Z,0.13
2023-12-21T12:55:37.025Z,0.30
2023-12-21T12:57:50.539Z,0.10
2023-12-21T13:00:00.443Z,0.30
2023-12-21T13:02:06.422Z,0.30
2023-12-21T13:04:13.316Z,0.20
2023-12-21T13:06:18.808Z,0.20
2023-12-21T13:08:24.522Z,0.40
2023-12-21T13:10:29.796Z,0.20
2023-12-21T13:12:35.694Z,0.30
2023-12-21T13:14:43.732Z,0.20
2023-12-21T13:16:47.051Z,0.20
2023-12-21T13:18:52.362Z,0.10
2023-12-21T13:20:57.682Z,1.05
2023-12-21T13:23:03.830Z,0.30
2023-12-21T13:25:09.849Z,0.20
2023-12-21T13:27:15.462Z,0.20
2023-12-21T13:29:18.312Z,0.10
2023-12-21T13:31:26.988Z,0.32
2023-12-21T13:33:32.970Z,0.10
2023-12-21T13:35:38.193Z,0.10
2023-12-21T13:37:43.491Z,0.20
2023-12-21T13:39:50.751Z,0.20
2023-12-21T13:41:58.404Z,0.30
2023-12-21T13:44:12.709Z,0.40
2023-12-21T13:46:22.936Z,0.30
2023-12-21T13:48:28.225Z,0.20
2023-12-21T13:50:33.438Z,0.30
2023-12-21T13:52:42.653Z,0.50
2023-12-21T13:54:48.315Z,0.20
2023-12-21T13:56:59.787Z,0.40
2023-12-21T13:59:14.371Z,0.20
2023-12-21T14:01:24.009Z,0.35
2023-12-21T14:03:31.902Z,0.30
2023-12-21T14:05:37.150Z,0.80
2023-12-21T14:07:42.709Z,0.50
2023-12-21T14:09:45.411Z,0.50
2023-12-21T14:11:53.008Z,0.30
2023-12-21T14:13:58.259Z,0.50
2023-12-21T14:16:03.773Z,0.57
2023-12-21T14:18:09.491Z,0.50
2023-12-21T14:20:19.986Z,0.50
2023-12-21T14:22:28.453Z,0.63
2023-12-21T14:24:33.814Z,0.70
2023-12-21T14:26:40.107Z,0.60
2023-12-21T14:28:56.521Z,0.90
2023-12-21T14:31:03.563Z,0.73
2023-12-21T14:33:08.839Z,0.75
2023-12-21T14:35:17.604Z,0.90
2023-12-21T14:37:24.004Z,0.70
2023-12-21T14:39:29.758Z,0.80
2023-12-21T14:41:38.463Z,0.88
2023-12-21T14:43:44.260Z,0.68
2023-12-21T14:45:50.258Z,0.52
2023-12-21T14:47:55.991Z,1.40
2023-12-21T14:50:01.360Z,0.70
2023-12-21T14:52:09.706Z,0.90
2023-12-21T14:54:20.371Z,1.23
2023-12-21T14:56:26.548Z,0.80
2023-12-21T14:58:32.061Z,0.88
2023-12-21T15:00:38.548Z,0.70
2023-12-21T15:02:44.338Z,0.88
2023-12-21T15:04:49.514Z,0.90
2023-12-21T15:06:56.617Z,0.70
2023-12-21T15:09:05.284Z,1.10
2023-12-21T15:11:11.612Z,1.77
2023-12-21T15:13:18.460Z,0.77
2023-12-21T15:15:24.173Z,0.63
2023-12-21T15:17:30.592Z,0.90
2023-12-21T15:19:35.823Z,0.77
2023-12-21T15:21:42.641Z,0.52
2023-12-21T15:23:47.928Z,0.80
2023-12-21T15:25:56.247Z,0.95
2023-12-21T15:28:01.450Z,0.90
2023-12-21T15:30:07.553Z,0.70
2023-12-21T15:32:12.885Z,0.90
2023-12-21T15:34:20.640Z,0.80
2023-12-21T15:36:23.260Z,0.88
2023-12-21T15:38:28.462Z,1.23
2023-12-21T15:40:34.097Z,0.70
2023-12-21T15:42:43.265Z,0.90
2023-12-21T15:44:48.459Z,0.85
2023-12-21T15:46:53.822Z,0.43
2023-12-21T15:48:59.043Z,0.52
2023-12-21T15:51:04.195Z,0.47
2023-12-21T15:53:11.240Z,0.50
2023-12-21T15:55:17.644Z,0.60
2023-12-21T15:57:24.481Z,0.50
2023-12-21T15:59:36.268Z,0.30
2023-12-21T16:01:41.915Z,0.50
2023-12-21T16:03:47.457Z,0.43
2023-12-21T16:05:52.681Z,0.30
2023-12-21T16:07:56.097Z,0.50
2023-12-21T16:12:09.905Z,0.50
2023-12-21T16:14:15.573Z,0.50
2023-12-21T16:16:23.938Z,0.40
2023-12-21T16:18:29.219Z,0.70
2023-12-21T16:20:34.631Z,0.93
2023-12-21T16:22:39.913Z,0.65
2023-12-21T16:24:45.126Z,0.90
2023-12-21T16:26:50.284Z,0.70
2023-12-21T16:28:52.975Z,0.70
2023-12-21T16:30:58.558Z,0.70
2023-12-21T16:33:09.279Z,0.93
2023-12-21T16:35:14.867Z,1.10
2023-12-21T16:37:21.012Z,1.17
2023-12-21T16:39:26.149Z,0.65
2023-12-21T16:41:31.826Z,0.50
2023-12-21T16:43:39.683Z,0.80
2023-12-21T16:45:42.989Z,0.70
2023-12-21T16:47:49.408Z,1.00
2023-12-21T16:49:57.203Z,0.88
2023-12-21T16:52:04.340Z,0.88
2023-12-21T16:54:12.331Z,0.80
2023-12-21T16:56:17.922Z,0.73
2023-12-21T16:58:25.572Z,0.70
2023-12-21T17:00:30.804Z,0.90
2023-12-21T17:02:34.230Z,0.57
2023-12-21T17:04:39.453Z,0.68
2023-12-21T17:06:48.050Z,0.70
2023-12-21T17:08:53.256Z,1.05
2023-12-21T17:10:58.458Z,0.70
2023-12-21T17:13:05.248Z,0.90
2023-12-21T17:15:12.537Z,0.63
2023-12-21T17:17:18.653Z,0.80
2023-12-21T17:19:23.887Z,0.60
2023-12-21T17:21:30.484Z,0.90
2023-12-21T17:23:38.223Z,1.00
2023-12-21T17:25:44.115Z,0.80
2023-12-21T17:27:49.568Z,1.02
2023-12-21T17:29:54.903Z,1.05
2023-12-21T17:32:00.546Z,1.25
2023-12-21T17:34:10.380Z,1.00
2023-12-21T17:36:18.369Z,1.08
2023-12-21T17:38:24.113Z,1.33
2023-12-21T17:40:31.830Z,1.00
2023-12-21T17:42:38.135Z,1.08
2023-12-21T17:44:43.796Z,0.90
2023-12-21T17:46:49.585Z,1.05
2023-12-21T17:48:52.207Z,0.63
2023-12-21T17:50:57.455Z,0.80
2023-12-21T17:53:04.856Z,1.00
2023-12-21T17:55:12.338Z,0.70
2023-12-21T17:57:18.037Z,0.70
2023-12-21T17:59:23.376Z,0.70
2023-12-21T18:01:29.002Z,0.60
2023-12-21T18:03:34.285Z,0.60
2023-12-21T18:05:39.493Z,0.60
2023-12-21T18:07:45.619Z,0.70
2023-12-21T18:09:48.421Z,0.60
2023-12-21T18:11:55.521Z,0.75
2023-12-21T18:14:03.276Z,0.70
2023-12-21T18:16:10.493Z,0.70
2023-12-21T18:18:18.081Z,1.45
2023-12-21T18:20:24.560Z,0.70
2023-12-21T18:22:32.541Z,0.60
2023-12-21T18:24:39.117Z,0.73
2023-12-21T18:26:42.330Z,0.95
2023-12-21T18:28:47.530Z,0.90
2023-12-21T18:30:55.391Z,0.70
2023-12-21T18:33:01.081Z,0.80
2023-12-21T18:35:08.754Z,1.42
2023-12-21T18:37:14.959Z,0.90
2023-12-21T18:39:20.137Z,0.60
2023-12-21T18:41:27.449Z,0.73
2023-12-21T18:43:32.696Z,0.90
2023-12-21T18:45:35.300Z,0.73
2023-12-21T18:47:43.260Z,1.00
2023-12-21T18:49:48.958Z,1.00
2023-12-21T18:51:54.755Z,0.90
2023-12-21T18:53:57.530Z,1.17
2023-12-21T18:56:07.328Z,0.88
2023-12-21T18:58:15.724Z,0.60
2023-12-21T19:00:24.379Z,0.63
2023-12-21T19:02:29.515Z,1.38
2023-12-21T19:04:37.635Z,0.60
2023-12-21T19:06:43.226Z,0.75
2023-12-21T19:08:48.459Z,0.85
2023-12-21T19:10:54.148Z,1.30
2023-12-21T19:13:01.356Z,0.70
2023-12-21T19:15:07.012Z,0.65
2023-12-21T19:17:09.794Z,0.70
2023-12-21T19:19:16.412Z,0.80
2023-12-21T19:21:24.830Z,0.70
2023-12-21T19:23:30.073Z,0.40
2023-12-21T19:25:35.665Z,0.70
2023-12-21T19:27:40.880Z,1.55
2023-12-21T19:29:46.218Z,1.38
2023-12-21T19:31:53.452Z,0.77
2023-12-21T19:33:58.821Z,0.93
2023-12-21T19:36:06.116Z,0.82
2023-12-21T19:38:14.124Z,0.75
2023-12-21T19:40:19.255Z,0.70
2023-12-21T19:42:27.607Z,1.10
2023-12-21T19:44:35.301Z,0.90
2023-12-21T19:46:41.506Z,1.35
2023-12-21T19:48:46.694Z,1.25
2023-12-21T19:50:52.115Z,1.33
2023-12-21T19:52:57.254Z,0.98
2023-12-21T19:55:05.429Z,1.20
2023-12-21T19:57:10.863Z,1.30
2023-12-21T19:59:20.369Z,0.90
2023-12-21T20:01:28.382Z,1.00
2023-12-21T20:03:35.436Z,0.63
2023-12-21T20:05:40.611Z,1.25
2023-12-21T20:07:46.148Z,0.73
2023-12-21T20:09:51.383Z,0.77
2023-12-21T20:11:59.139Z,1.15
2023-12-21T20:14:06.602Z,0.98
2023-12-21T20:16:13.654Z,1.02
2023-12-21T20:18:19.044Z,1.02
2023-12-21T20:20:24.296Z,0.90
2023-12-21T20:22:31.814Z,0.75
2023-12-21T20:24:37.130Z,1.00
2023-12-21T20:26:42.392Z,1.00
2023-12-21T20:28:51.017Z,1.08
2023-12-21T20:30:56.434Z,1.17
2023-12-21T20:32:59.169Z,1.25
2023-12-21T20:35:05.054Z,1.02
2023-12-21T20:37:07.683Z,0.90
2023-12-21T20:39:12.819Z,0.93
2023-12-21T20:41:21.414Z,0.90
2023-12-21T20:43:27.283Z,1.23
2023-12-21T20:45:36.926Z,0.60
2023-12-21T20:47:42.681Z,1.02
2023-12-21T20:49:45.559Z,0.77
2023-12-21T20:51:51.731Z,0.63
2023-12-21T20:54:00.777Z,0.80
2023-12-21T20:56:07.452Z,1.10
2023-12-21T20:58:12.668Z,0.90
2023-12-21T21:00:20.639Z,1.67
2023-12-21T21:02:27.897Z,0.85
2023-12-21T21:04:33.390Z,0.80
2023-12-21T21:06:39.191Z,1.08
2023-12-21T21:08:44.437Z,0.82
2023-12-21T21:10:50.575Z,0.93
2023-12-21T21:13:01.771Z,0.60
2023-12-21T21:15:08.976Z,0.80
2023-12-21T21:17:14.846Z,0.70
2023-12-21T21:19:22.773Z,0.80
2023-12-21T21:21:28.577Z,1.25
2023-12-21T21:23:34.195Z,1.00
2023-12-21T21:25:39.886Z,1.05
2023-12-21T21:27:42.992Z,0.82
2023-12-21T21:29:48.134Z,0.80
2023-12-21T21:31:51.812Z,1.02
2023-12-21T21:33:57.081Z,1.15
2023-12-21T21:36:05.339Z,1.35
2023-12-21T21:38:10.552Z,1.17
2023-12-21T21:40:16.411Z,1.35
2023-12-21T21:42:21.595Z,1.40
2023-12-21T21:44:31.158Z,1.35
2023-12-21T21:46:36.647Z,1.23
2023-12-21T21:48:45.019Z,3.47
2023-12-21T21:50:50.962Z,1.33
2023-12-21T21:52:58.683Z,1.50
2023-12-21T21:55:06.852Z,1.65
2023-12-21T21:57:12.566Z,1.67
2023-12-21T21:59:22.664Z,1.27
2023-12-21T22:01:27.856Z,2.65
2023-12-21T22:03:33.035Z,1.80
2023-12-21T22:05:39.238Z,2.03
2023-12-21T22:07:45.220Z,1.67
2023-12-21T22:09:53.432Z,1.83
2023-12-21T22:11:58.563Z,2.00
2023-12-21T22:14:04.923Z,2.03
2023-12-21T22:16:08.596Z,2.00
2023-12-21T22:18:13.775Z,2.20
2023-12-21T22:20:20.310Z,2.38
2023-12-21T22:22:26.883Z,2.08
2023-12-21T22:24:31.981Z,2.47
2023-12-21T22:26:40.126Z,1.50
2023-12-21T22:28:42.713Z,3.10
2023-12-21T22:30:48.890Z,1.80
2023-12-21T22:32:55.345Z,2.38
2023-12-21T22:35:00.539Z,1.90
2023-12-21T22:37:06.810Z,1.90
2023-12-21T22:39:11.915Z,2.60
2023-12-21T22:41:18.871Z,1.92
2023-12-21T22:43:34.984Z,2.20
2023-12-21T22:45:47.380Z,1.77
2023-12-21T22:47:53.433Z,2.55
2023-12-21T22:50:00.863Z,1.30
2023-12-21T22:52:07.888Z,2.15
2023-12-21T22:54:10.497Z,3.20
2023-12-21T22:56:16.052Z,2.88
2023-12-21T22:58:22.575Z,1.85
2023-12-21T23:00:30.873Z,2.90
2023-12-21T23:02:37.573Z,2.35
2023-12-21T23:04:42.819Z,2.75
2023-12-21T23:06:49.370Z,2.90
2023-12-21T23:08:54.470Z,2.58
2023-12-21T23:11:00.203Z,2.38
2023-12-21T23:13:06.017Z,3.92
2023-12-21T23:15:14.047Z,2.17
2023-12-21T23:17:23.255Z,2.40
2023-12-21T23:19:28.490Z,2.20
2023-12-21T23:21:38.309Z,3.00
2023-12-21T23:23:44.946Z,2.65
2023-12-21T23:25:50.073Z,2.45
2023-12-21T23:27:56.262Z,2.72
2023-12-21T23:30:01.411Z,2.65
2023-12-21T23:32:08.149Z,2.40
2023-12-21T23:34:16.215Z,2.65
2023-12-21T23:36:18.793Z,2.65
2023-12-21T23:38:23.993Z,3.20
2023-12-21T23:40:29.371Z,3.58
2023-12-21T23:42:37.368Z,3.13
2023-12-21T23:44:43.697Z,2.50
2023-12-21T23:46:49.408Z,3.28
2023-12-21T23:48:54.620Z,2.85
2023-12-21T23:50:59.762Z,2.25
2023-12-21T23:53:06.061Z,2.47
2023-12-21T23:55:12.059Z,2.92
2023-12-21T23:57:17.580Z,2.70
2023-12-21T23:59:22.659Z,3.33
